sensor_id;sensor_type;location;lat;lon;timestamp;temperature;humidity
41469;DHT22;27206;47.032;15.484;2023-09-19T00:00:21;19.30;99.90
41469;DHT22;27206;47.032;15.484;2023-09-19T00:02:57;19.20;99.90
41469;DHT22;27206;47.032;15.484;2023-09-19T00:05:29;19.20;99.90
41469;DHT22;27206;47.032;15.484;2023-09-19T00:07:57;19.20;99.90
41469;DHT22;27206;47.032;15.484;2023-09-19T00:10:27;19.10;99.90
41469;DHT22;27206;47.032;15.484;2023-09-19T00:12:57;19.10;99.90
41469;DHT22;27206;47.032;15.484;2023-09-19T00:15:25;19.10;99.90
41469;DHT22;27206;47.032;15.484;2023-09-19T00:17:54;19.10;99.90
41469;DHT22;27206;47.032;15.484;2023-09-19T00:20:20;19.10;99.90
41469;DHT22;27206;47.032;15.484;2023-09-19T00:22:49;19.10;99.90
41469;DHT22;27206;47.032;15.484;2023-09-19T00:25:16;19.10;99.90
41469;DHT22;27206;47.032;15.484;2023-09-19T00:27:42;19.10;99.90
41469;DHT22;27206;47.032;15.484;2023-09-19T00:30:09;19.10;99.90
41469;DHT22;27206;47.032;15.484;2023-09-19T00:32:40;19.10;99.90
41469;DHT22;27206;47.032;15.484;2023-09-19T00:35:06;19.20;99.90
41469;DHT22;27206;47.032;15.484;2023-09-19T00:37:33;19.10;99.90
41469;DHT22;27206;47.032;15.484;2023-09-19T00:39:59;19.10;99.90
41469;DHT22;27206;47.032;15.484;2023-09-19T00:42:25;19.20;99.90
41469;DHT22;27206;47.032;15.484;2023-09-19T00:44:51;19.10;99.90
41469;DHT22;27206;47.032;15.484;2023-09-19T00:47:17;19.00;99.90
41469;DHT22;27206;47.032;15.484;2023-09-19T00:49:44;19.00;99.90
41469;DHT22;27206;47.032;15.484;2023-09-19T00:52:18;19.00;99.90
41469;DHT22;27206;47.032;15.484;2023-09-19T00:54:47;19.00;99.90
41469;DHT22;27206;47.032;15.484;2023-09-19T00:57:14;19.00;99.90
41469;DHT22;27206;47.032;15.484;2023-09-19T00:59:41;19.00;99.90
41469;DHT22;27206;47.032;15.484;2023-09-19T01:02:08;19.00;99.90
41469;DHT22;27206;47.032;15.484;2023-09-19T01:04:34;19.00;99.90
41469;DHT22;27206;47.032;15.484;2023-09-19T01:06:59;19.00;99.90
41469;DHT22;27206;47.032;15.484;2023-09-19T01:09:25;19.00;99.90
41469;DHT22;27206;47.032;15.484;2023-09-19T01:11:55;19.00;99.90
41469;DHT22;27206;47.032;15.484;2023-09-19T01:17:11;19.00;99.90
41469;DHT22;27206;47.032;15.484;2023-09-19T01:22:30;18.90;99.90
41469;DHT22;27206;47.032;15.484;2023-09-19T01:25:26;18.90;99.90
41469;DHT22;27206;47.032;15.484;2023-09-19T01:30:43;18.90;99.90
41469;DHT22;27206;47.032;15.484;2023-09-19T01:33:11;18.90;99.90
41469;DHT22;27206;47.032;15.484;2023-09-19T01:35:38;18.90;99.90
41469;DHT22;27206;47.032;15.484;2023-09-19T01:38:05;18.90;99.90
41469;DHT22;27206;47.032;15.484;2023-09-19T01:40:40;19.00;99.90
41469;DHT22;27206;47.032;15.484;2023-09-19T01:43:12;19.00;99.90
41469;DHT22;27206;47.032;15.484;2023-09-19T01:46:08;19.00;99.90
41469;DHT22;27206;47.032;15.484;2023-09-19T01:54:26;18.90;99.90
41469;DHT22;27206;47.032;15.484;2023-09-19T01:59:43;18.90;99.90
41469;DHT22;27206;47.032;15.484;2023-09-19T02:02:10;18.90;99.90
41469;DHT22;27206;47.032;15.484;2023-09-19T02:04:37;18.90;99.90
41469;DHT22;27206;47.032;15.484;2023-09-19T02:07:03;18.90;99.90
41469;DHT22;27206;47.032;15.484;2023-09-19T02:09:31;18.90;99.90
41469;DHT22;27206;47.032;15.484;2023-09-19T02:11:56;18.90;99.90
41469;DHT22;27206;47.032;15.484;2023-09-19T02:14:22;18.90;99.90
41469;DHT22;27206;47.032;15.484;2023-09-19T02:16:48;19.00;99.90
41469;DHT22;27206;47.032;15.484;2023-09-19T02:19:15;18.90;99.90
41469;DHT22;27206;47.032;15.484;2023-09-19T02:21:40;18.90;99.90
41469;DHT22;27206;47.032;15.484;2023-09-19T02:24:06;18.90;99.90
41469;DHT22;27206;47.032;15.484;2023-09-19T02:26:33;18.90;99.90
41469;DHT22;27206;47.032;15.484;2023-09-19T02:29:01;19.00;99.90
41469;DHT22;27206;47.032;15.484;2023-09-19T02:31:30;18.90;99.90
41469;DHT22;27206;47.032;15.484;2023-09-19T02:33:56;18.90;99.90
41469;DHT22;27206;47.032;15.484;2023-09-19T02:36:22;19.00;99.90
41469;DHT22;27206;47.032;15.484;2023-09-19T02:38:49;18.90;99.90
41469;DHT22;27206;47.032;15.484;2023-09-19T02:41:15;18.90;99.90
41469;DHT22;27206;47.032;15.484;2023-09-19T02:43:40;18.80;99.90
41469;DHT22;27206;47.032;15.484;2023-09-19T02:46:08;18.90;99.90
41469;DHT22;27206;47.032;15.484;2023-09-19T02:48:34;18.90;99.90
41469;DHT22;27206;47.032;15.484;2023-09-19T02:51:01;18.90;99.90
41469;DHT22;27206;47.032;15.484;2023-09-19T02:53:28;18.90;99.90
41469;DHT22;27206;47.032;15.484;2023-09-19T02:55:56;18.80;99.90
41469;DHT22;27206;47.032;15.484;2023-09-19T02:58:22;18.90;99.90
41469;DHT22;27206;47.032;15.484;2023-09-19T03:00:49;18.90;99.90
41469;DHT22;27206;47.032;15.484;2023-09-19T03:03:15;18.90;99.90
41469;DHT22;27206;47.032;15.484;2023-09-19T03:05:44;18.90;99.90
41469;DHT22;27206;47.032;15.484;2023-09-19T03:08:13;18.90;99.90
41469;DHT22;27206;47.032;15.484;2023-09-19T03:10:42;18.90;99.90
41469;DHT22;27206;47.032;15.484;2023-09-19T03:13:08;18.80;99.90
41469;DHT22;27206;47.032;15.484;2023-09-19T03:15:35;18.80;99.90
41469;DHT22;27206;47.032;15.484;2023-09-19T03:18:04;18.80;99.90
41469;DHT22;27206;47.032;15.484;2023-09-19T03:20:30;18.80;99.90
41469;DHT22;27206;47.032;15.484;2023-09-19T03:22:56;18.70;99.90
41469;DHT22;27206;47.032;15.484;2023-09-19T03:25:22;18.80;99.90
41469;DHT22;27206;47.032;15.484;2023-09-19T03:27:49;18.70;99.90
41469;DHT22;27206;47.032;15.484;2023-09-19T03:30:15;18.70;99.90
41469;DHT22;27206;47.032;15.484;2023-09-19T03:32:48;18.70;99.90
41469;DHT22;27206;47.032;15.484;2023-09-19T03:35:15;18.70;99.90
41469;DHT22;27206;47.032;15.484;2023-09-19T03:37:42;18.70;99.90
41469;DHT22;27206;47.032;15.484;2023-09-19T03:40:09;18.60;99.90
41469;DHT22;27206;47.032;15.484;2023-09-19T03:42:38;18.70;99.90
41469;DHT22;27206;47.032;15.484;2023-09-19T03:45:05;18.90;99.90
41469;DHT22;27206;47.032;15.484;2023-09-19T03:47:31;18.70;99.90
41469;DHT22;27206;47.032;15.484;2023-09-19T03:49:57;18.80;99.90
41469;DHT22;27206;47.032;15.484;2023-09-19T03:52:22;19.00;99.90
41469;DHT22;27206;47.032;15.484;2023-09-19T03:54:48;18.90;99.90
41469;DHT22;27206;47.032;15.484;2023-09-19T03:57:14;19.00;99.90
41469;DHT22;27206;47.032;15.484;2023-09-19T03:59:42;19.10;99.90
41469;DHT22;27206;47.032;15.484;2023-09-19T04:02:11;19.00;99.90
41469;DHT22;27206;47.032;15.484;2023-09-19T04:04:37;19.10;99.90
41469;DHT22;27206;47.032;15.484;2023-09-19T04:07:03;19.20;99.90
41469;DHT22;27206;47.032;15.484;2023-09-19T04:09:28;19.40;99.90
41469;DHT22;27206;47.032;15.484;2023-09-19T04:11:54;19.10;99.90
41469;DHT22;27206;47.032;15.484;2023-09-19T04:14:19;18.90;99.90
41469;DHT22;27206;47.032;15.484;2023-09-19T04:16:45;18.80;99.90
41469;DHT22;27206;47.032;15.484;2023-09-19T04:19:11;18.60;99.90
41469;DHT22;27206;47.032;15.484;2023-09-19T04:21:36;18.50;99.90
41469;DHT22;27206;47.032;15.484;2023-09-19T04:24:02;18.50;99.90
41469;DHT22;27206;47.032;15.484;2023-09-19T04:26:28;18.50;99.90
41469;DHT22;27206;47.032;15.484;2023-09-19T04:28:53;18.50;99.90
41469;DHT22;27206;47.032;15.484;2023-09-19T04:31:19;18.50;99.90
41469;DHT22;27206;47.032;15.484;2023-09-19T04:33:45;18.40;99.90
41469;DHT22;27206;47.032;15.484;2023-09-19T04:36:11;18.40;99.90
41469;DHT22;27206;47.032;15.484;2023-09-19T04:38:38;18.40;99.90
41469;DHT22;27206;47.032;15.484;2023-09-19T04:41:04;18.50;99.90
41469;DHT22;27206;47.032;15.484;2023-09-19T04:43:29;18.50;99.90
41469;DHT22;27206;47.032;15.484;2023-09-19T04:45:55;18.40;99.90
41469;DHT22;27206;47.032;15.484;2023-09-19T04:48:22;18.40;99.90
41469;DHT22;27206;47.032;15.484;2023-09-19T04:50:51;18.40;99.90
41469;DHT22;27206;47.032;15.484;2023-09-19T04:53:18;18.30;99.90
41469;DHT22;27206;47.032;15.484;2023-09-19T04:55:49;18.30;99.90
41469;DHT22;27206;47.032;15.484;2023-09-19T04:58:15;18.20;99.90
41469;DHT22;27206;47.032;15.484;2023-09-19T05:00:40;18.10;99.90
41469;DHT22;27206;47.032;15.484;2023-09-19T05:03:06;18.10;99.90
41469;DHT22;27206;47.032;15.484;2023-09-19T05:05:34;18.00;99.90
41469;DHT22;27206;47.032;15.484;2023-09-19T05:08:00;18.00;99.90
41469;DHT22;27206;47.032;15.484;2023-09-19T05:10:26;18.00;99.90
41469;DHT22;27206;47.032;15.484;2023-09-19T05:12:54;17.90;99.90
41469;DHT22;27206;47.032;15.484;2023-09-19T05:15:20;17.90;99.90
41469;DHT22;27206;47.032;15.484;2023-09-19T05:17:52;18.00;99.90
41469;DHT22;27206;47.032;15.484;2023-09-19T05:20:21;18.00;99.90
41469;DHT22;27206;47.032;15.484;2023-09-19T05:25:31;18.10;99.90
41469;DHT22;27206;47.032;15.484;2023-09-19T05:28:00;18.10;99.90
41469;DHT22;27206;47.032;15.484;2023-09-19T05:30:29;18.10;99.90
41469;DHT22;27206;47.032;15.484;2023-09-19T05:32:54;18.00;99.90
41469;DHT22;27206;47.032;15.484;2023-09-19T05:35:21;18.10;99.90
41469;DHT22;27206;47.032;15.484;2023-09-19T05:37:48;18.00;99.90
41469;DHT22;27206;47.032;15.484;2023-09-19T05:40:17;17.90;99.90
41469;DHT22;27206;47.032;15.484;2023-09-19T05:42:42;18.00;99.90
41469;DHT22;27206;47.032;15.484;2023-09-19T05:45:10;18.00;99.90
41469;DHT22;27206;47.032;15.484;2023-09-19T05:47:41;18.00;99.90
41469;DHT22;27206;47.032;15.484;2023-09-19T05:50:09;18.10;99.90
41469;DHT22;27206;47.032;15.484;2023-09-19T05:52:35;18.10;99.90
41469;DHT22;27206;47.032;15.484;2023-09-19T05:55:04;18.10;99.90
41469;DHT22;27206;47.032;15.484;2023-09-19T05:57:30;18.10;99.90
41469;DHT22;27206;47.032;15.484;2023-09-19T05:59:56;18.10;99.90
41469;DHT22;27206;47.032;15.484;2023-09-19T06:02:22;18.10;99.90
41469;DHT22;27206;47.032;15.484;2023-09-19T06:04:47;18.20;99.90
41469;DHT22;27206;47.032;15.484;2023-09-19T06:07:13;18.20;99.90
41469;DHT22;27206;47.032;15.484;2023-09-19T06:09:39;18.20;99.90
41469;DHT22;27206;47.032;15.484;2023-09-19T06:12:06;18.30;99.90
41469;DHT22;27206;47.032;15.484;2023-09-19T06:14:31;18.20;99.90
41469;DHT22;27206;47.032;15.484;2023-09-19T06:16:57;18.30;99.90
41469;DHT22;27206;47.032;15.484;2023-09-19T06:19:23;18.30;99.90
41469;DHT22;27206;47.032;15.484;2023-09-19T06:21:52;18.30;99.90
41469;DHT22;27206;47.032;15.484;2023-09-19T06:24:19;18.30;99.90
41469;DHT22;27206;47.032;15.484;2023-09-19T06:26:45;18.40;99.90
41469;DHT22;27206;47.032;15.484;2023-09-19T06:29:10;18.30;99.90
41469;DHT22;27206;47.032;15.484;2023-09-19T06:31:39;18.30;99.90
41469;DHT22;27206;47.032;15.484;2023-09-19T06:34:04;18.20;99.90
41469;DHT22;27206;47.032;15.484;2023-09-19T06:36:30;18.20;99.90
41469;DHT22;27206;47.032;15.484;2023-09-19T06:38:55;18.20;99.90
41469;DHT22;27206;47.032;15.484;2023-09-19T06:41:21;18.30;99.90
41469;DHT22;27206;47.032;15.484;2023-09-19T06:43:50;18.40;99.90
41469;DHT22;27206;47.032;15.484;2023-09-19T06:46:19;18.50;99.90
41469;DHT22;27206;47.032;15.484;2023-09-19T06:48:44;18.50;99.90
41469;DHT22;27206;47.032;15.484;2023-09-19T06:51:10;18.70;99.90
41469;DHT22;27206;47.032;15.484;2023-09-19T06:53:35;18.70;99.90
41469;DHT22;27206;47.032;15.484;2023-09-19T06:56:02;18.70;99.90
41469;DHT22;27206;47.032;15.484;2023-09-19T06:58:28;18.70;99.90
41469;DHT22;27206;47.032;15.484;2023-09-19T07:00:54;18.80;99.90
41469;DHT22;27206;47.032;15.484;2023-09-19T07:03:19;18.90;99.90
41469;DHT22;27206;47.032;15.484;2023-09-19T07:05:47;18.80;99.90
41469;DHT22;27206;47.032;15.484;2023-09-19T07:08:13;18.90;99.90
41469;DHT22;27206;47.032;15.484;2023-09-19T07:10:40;18.90;99.90
41469;DHT22;27206;47.032;15.484;2023-09-19T07:13:07;18.80;99.90
41469;DHT22;27206;47.032;15.484;2023-09-19T07:15:36;18.90;99.90
41469;DHT22;27206;47.032;15.484;2023-09-19T07:18:05;18.80;99.90
41469;DHT22;27206;47.032;15.484;2023-09-19T07:20:32;18.80;99.90
41469;DHT22;27206;47.032;15.484;2023-09-19T07:23:01;18.90;99.90
41469;DHT22;27206;47.032;15.484;2023-09-19T07:25:30;19.00;99.90
41469;DHT22;27206;47.032;15.484;2023-09-19T07:27:57;18.90;99.90
41469;DHT22;27206;47.032;15.484;2023-09-19T07:30:25;18.90;99.90
41469;DHT22;27206;47.032;15.484;2023-09-19T07:32:51;18.90;99.90
41469;DHT22;27206;47.032;15.484;2023-09-19T07:35:18;19.00;99.90
41469;DHT22;27206;47.032;15.484;2023-09-19T07:37:46;18.90;99.90
41469;DHT22;27206;47.032;15.484;2023-09-19T07:40:15;18.90;99.90
41469;DHT22;27206;47.032;15.484;2023-09-19T07:42:41;18.90;99.90
41469;DHT22;27206;47.032;15.484;2023-09-19T07:45:08;18.90;99.90
41469;DHT22;27206;47.032;15.484;2023-09-19T07:47:34;18.90;99.90
41469;DHT22;27206;47.032;15.484;2023-09-19T07:50:01;19.00;99.90
41469;DHT22;27206;47.032;15.484;2023-09-19T07:52:28;18.90;99.90
41469;DHT22;27206;47.032;15.484;2023-09-19T07:54:54;19.00;99.90
41469;DHT22;27206;47.032;15.484;2023-09-19T07:57:20;19.00;99.90
41469;DHT22;27206;47.032;15.484;2023-09-19T07:59:46;19.00;99.90
41469;DHT22;27206;47.032;15.484;2023-09-19T08:02:12;19.00;99.90
41469;DHT22;27206;47.032;15.484;2023-09-19T08:04:44;19.20;99.90
41469;DHT22;27206;47.032;15.484;2023-09-19T08:07:12;19.30;99.90
41469;DHT22;27206;47.032;15.484;2023-09-19T08:09:41;19.40;99.90
41469;DHT22;27206;47.032;15.484;2023-09-19T08:12:07;19.30;99.90
41469;DHT22;27206;47.032;15.484;2023-09-19T08:14:36;19.40;99.90
41469;DHT22;27206;47.032;15.484;2023-09-19T08:17:02;19.50;99.90
41469;DHT22;27206;47.032;15.484;2023-09-19T08:19:31;19.70;99.90
41469;DHT22;27206;47.032;15.484;2023-09-19T08:22:00;20.00;99.90
41469;DHT22;27206;47.032;15.484;2023-09-19T08:24:29;20.10;99.90
41469;DHT22;27206;47.032;15.484;2023-09-19T08:26:56;20.10;99.90
41469;DHT22;27206;47.032;15.484;2023-09-19T08:29:24;20.20;99.90
41469;DHT22;27206;47.032;15.484;2023-09-19T08:31:59;20.30;99.90
41469;DHT22;27206;47.032;15.484;2023-09-19T08:34:25;20.60;99.90
41469;DHT22;27206;47.032;15.484;2023-09-19T08:36:51;20.80;99.90
41469;DHT22;27206;47.032;15.484;2023-09-19T08:39:24;20.80;99.90
41469;DHT22;27206;47.032;15.484;2023-09-19T08:42:00;21.00;99.90
41469;DHT22;27206;47.032;15.484;2023-09-19T08:44:27;21.00;99.90
41469;DHT22;27206;47.032;15.484;2023-09-19T08:47:08;21.10;99.90
41469;DHT22;27206;47.032;15.484;2023-09-19T08:52:27;21.40;99.90
41469;DHT22;27206;47.032;15.484;2023-09-19T08:54:59;21.70;99.90
41469;DHT22;27206;47.032;15.484;2023-09-19T08:57:29;21.70;96.80
41469;DHT22;27206;47.032;15.484;2023-09-19T08:59:55;21.90;95.90
41469;DHT22;27206;47.032;15.484;2023-09-19T09:02:22;22.20;78.40
41469;DHT22;27206;47.032;15.484;2023-09-19T09:04:50;22.20;67.00
41469;DHT22;27206;47.032;15.484;2023-09-19T09:07:16;22.50;68.70
41469;DHT22;27206;47.032;15.484;2023-09-19T09:09:44;22.60;50.10
41469;DHT22;27206;47.032;15.484;2023-09-19T09:12:12;22.80;45.50
41469;DHT22;27206;47.032;15.484;2023-09-19T09:14:39;22.90;35.40
41469;DHT22;27206;47.032;15.484;2023-09-19T09:17:05;22.80;34.30
41469;DHT22;27206;47.032;15.484;2023-09-19T09:19:31;22.70;43.20
41469;DHT22;27206;47.032;15.484;2023-09-19T09:22:10;22.90;42.60
41469;DHT22;27206;47.032;15.484;2023-09-19T09:24:37;22.90;38.40
41469;DHT22;27206;47.032;15.484;2023-09-19T09:27:05;22.70;46.30
41469;DHT22;27206;47.032;15.484;2023-09-19T09:29:47;22.70;53.40
41469;DHT22;27206;47.032;15.484;2023-09-19T09:32:28;22.40;57.10
41469;DHT22;27206;47.032;15.484;2023-09-19T09:34:59;22.60;50.80
41469;DHT22;27206;47.032;15.484;2023-09-19T09:37:25;22.50;51.30
41469;DHT22;27206;47.032;15.484;2023-09-19T09:39:55;22.60;55.40
41469;DHT22;27206;47.032;15.484;2023-09-19T09:42:35;22.70;39.10
41469;DHT22;27206;47.032;15.484;2023-09-19T09:45:18;22.60;44.90
41469;DHT22;27206;47.032;15.484;2023-09-19T09:48:03;22.80;53.80
41469;DHT22;27206;47.032;15.484;2023-09-19T09:50:31;22.70;48.00
41469;DHT22;27206;47.032;15.484;2023-09-19T09:53:26;22.70;49.30
41469;DHT22;27206;47.032;15.484;2023-09-19T09:58:27;22.60;44.40
41469;DHT22;27206;47.032;15.484;2023-09-19T10:00:58;22.70;47.40
41469;DHT22;27206;47.032;15.484;2023-09-19T10:03:53;22.70;42.70
41469;DHT22;27206;47.032;15.484;2023-09-19T10:06:22;22.70;55.70
41469;DHT22;27206;47.032;15.484;2023-09-19T10:09:07;22.70;34.60
41469;DHT22;27206;47.032;15.484;2023-09-19T10:11:46;23.30;7.60
41469;DHT22;27206;47.032;15.484;2023-09-19T10:14:14;24.00;2.30
41469;DHT22;27206;47.032;15.484;2023-09-19T10:16:46;23.90;1.00
41469;DHT22;27206;47.032;15.484;2023-09-19T10:19:23;23.80;10.70
41469;DHT22;27206;47.032;15.484;2023-09-19T10:21:55;24.00;1.00
41469;DHT22;27206;47.032;15.484;2023-09-19T10:24:22;24.50;1.00
41469;DHT22;27206;47.032;15.484;2023-09-19T10:26:52;24.70;1.00
41469;DHT22;27206;47.032;15.484;2023-09-19T10:29:21;25.20;1.00
41469;DHT22;27206;47.032;15.484;2023-09-19T10:31:48;25.70;1.00
41469;DHT22;27206;47.032;15.484;2023-09-19T10:34:17;26.10;1.00
41469;DHT22;27206;47.032;15.484;2023-09-19T10:36:46;26.20;1.00
41469;DHT22;27206;47.032;15.484;2023-09-19T10:39:14;26.30;1.00
41469;DHT22;27206;47.032;15.484;2023-09-19T10:41:51;26.60;1.00
41469;DHT22;27206;47.032;15.484;2023-09-19T10:44:32;26.90;1.00
41469;DHT22;27206;47.032;15.484;2023-09-19T10:46:58;27.40;1.00
41469;DHT22;27206;47.032;15.484;2023-09-19T10:49:24;26.40;1.00
41469;DHT22;27206;47.032;15.484;2023-09-19T10:51:54;25.70;1.00
41469;DHT22;27206;47.032;15.484;2023-09-19T10:54:24;26.10;1.00
41469;DHT22;27206;47.032;15.484;2023-09-19T10:56:53;26.60;1.00
41469;DHT22;27206;47.032;15.484;2023-09-19T10:59:20;26.90;1.00
41469;DHT22;27206;47.032;15.484;2023-09-19T11:04:32;27.50;1.00
41469;DHT22;27206;47.032;15.484;2023-09-19T11:07:09;27.90;1.00
41469;DHT22;27206;47.032;15.484;2023-09-19T11:12:12;28.30;1.00
41469;DHT22;27206;47.032;15.484;2023-09-19T11:14:39;28.10;1.00
41469;DHT22;27206;47.032;15.484;2023-09-19T11:30:33;28.30;1.00
41469;DHT22;27206;47.032;15.484;2023-09-19T11:36:06;28.60;1.00
41469;DHT22;27206;47.032;15.484;2023-09-19T11:46:27;28.60;1.00
41469;DHT22;27206;47.032;15.484;2023-09-19T11:48:54;28.70;1.00
41469;DHT22;27206;47.032;15.484;2023-09-19T11:51:22;29.00;1.00
41469;DHT22;27206;47.032;15.484;2023-09-19T11:53:58;28.80;1.00
41469;DHT22;27206;47.032;15.484;2023-09-19T11:56:27;29.20;1.00
41469;DHT22;27206;47.032;15.484;2023-09-19T11:58:55;29.30;1.00
41469;DHT22;27206;47.032;15.484;2023-09-19T12:01:28;29.50;1.00
41469;DHT22;27206;47.032;15.484;2023-09-19T12:03:56;29.70;1.00
41469;DHT22;27206;47.032;15.484;2023-09-19T12:06:29;29.90;1.00
41469;DHT22;27206;47.032;15.484;2023-09-19T12:08:55;30.10;1.00
41469;DHT22;27206;47.032;15.484;2023-09-19T12:11:23;30.20;1.00
41469;DHT22;27206;47.032;15.484;2023-09-19T12:13:49;29.80;1.00
41469;DHT22;27206;47.032;15.484;2023-09-19T12:16:17;29.90;1.00
41469;DHT22;27206;47.032;15.484;2023-09-19T12:18:44;29.70;1.00
41469;DHT22;27206;47.032;15.484;2023-09-19T12:21:31;29.50;99.90
41469;DHT22;27206;47.032;15.484;2023-09-19T12:24:27;29.70;99.90
41469;DHT22;27206;47.032;15.484;2023-09-19T12:27:03;30.00;1.00
41469;DHT22;27206;47.032;15.484;2023-09-19T12:29:31;29.90;99.90
41469;DHT22;27206;47.032;15.484;2023-09-19T12:31:58;29.90;99.90
41469;DHT22;27206;47.032;15.484;2023-09-19T12:34:28;30.10;99.90
41469;DHT22;27206;47.032;15.484;2023-09-19T12:37:07;29.40;99.90
41469;DHT22;27206;47.032;15.484;2023-09-19T12:39:38;29.50;99.90
41469;DHT22;27206;47.032;15.484;2023-09-19T12:42:04;30.10;1.00
41469;DHT22;27206;47.032;15.484;2023-09-19T12:44:35;30.30;1.00
41469;DHT22;27206;47.032;15.484;2023-09-19T12:47:11;30.90;1.00
41469;DHT22;27206;47.032;15.484;2023-09-19T12:50:07;30.90;99.90
41469;DHT22;27206;47.032;15.484;2023-09-19T12:52:37;31.40;99.90
41469;DHT22;27206;47.032;15.484;2023-09-19T12:55:04;31.40;99.90
41469;DHT22;27206;47.032;15.484;2023-09-19T12:57:32;30.50;99.90
41469;DHT22;27206;47.032;15.484;2023-09-19T13:00:03;30.60;99.90
41469;DHT22;27206;47.032;15.484;2023-09-19T13:02:31;29.90;99.90
41469;DHT22;27206;47.032;15.484;2023-09-19T13:04:58;29.10;99.90
41469;DHT22;27206;47.032;15.484;2023-09-19T13:07:47;28.60;1.00
41469;DHT22;27206;47.032;15.484;2023-09-19T13:10:14;28.20;1.00
41469;DHT22;27206;47.032;15.484;2023-09-19T13:12:43;28.40;1.00
41469;DHT22;27206;47.032;15.484;2023-09-19T13:15:14;28.50;1.00
41469;DHT22;27206;47.032;15.484;2023-09-19T13:17:49;29.50;1.00
41469;DHT22;27206;47.032;15.484;2023-09-19T13:20:25;30.10;1.00
41469;DHT22;27206;47.032;15.484;2023-09-19T13:22:53;30.60;99.90
41469;DHT22;27206;47.032;15.484;2023-09-19T13:25:21;30.70;99.90
41469;DHT22;27206;47.032;15.484;2023-09-19T13:27:51;30.00;99.90
41469;DHT22;27206;47.032;15.484;2023-09-19T13:30:18;30.00;99.90
41469;DHT22;27206;47.032;15.484;2023-09-19T13:32:44;29.60;99.90
41469;DHT22;27206;47.032;15.484;2023-09-19T13:35:12;28.90;1.00
41469;DHT22;27206;47.032;15.484;2023-09-19T13:37:39;29.50;1.00
41469;DHT22;27206;47.032;15.484;2023-09-19T13:40:13;30.30;1.00
41469;DHT22;27206;47.032;15.484;2023-09-19T13:42:39;29.60;1.00
41469;DHT22;27206;47.032;15.484;2023-09-19T13:45:06;28.80;1.00
41469;DHT22;27206;47.032;15.484;2023-09-19T13:47:32;28.10;1.00
41469;DHT22;27206;47.032;15.484;2023-09-19T13:49:59;28.00;1.00
41469;DHT22;27206;47.032;15.484;2023-09-19T13:52:26;28.30;1.00
41469;DHT22;27206;47.032;15.484;2023-09-19T13:54:57;28.90;1.00
41469;DHT22;27206;47.032;15.484;2023-09-19T13:57:23;29.70;1.00
41469;DHT22;27206;47.032;15.484;2023-09-19T13:59:49;29.50;1.00
41469;DHT22;27206;47.032;15.484;2023-09-19T14:02:15;29.80;1.00
41469;DHT22;27206;47.032;15.484;2023-09-19T14:04:44;30.30;1.00
41469;DHT22;27206;47.032;15.484;2023-09-19T14:07:09;30.30;1.00
41469;DHT22;27206;47.032;15.484;2023-09-19T14:09:37;30.20;1.00
41469;DHT22;27206;47.032;15.484;2023-09-19T14:12:03;30.50;1.00
41469;DHT22;27206;47.032;15.484;2023-09-19T14:14:29;30.50;1.00
41469;DHT22;27206;47.032;15.484;2023-09-19T14:16:54;30.40;1.00
41469;DHT22;27206;47.032;15.484;2023-09-19T14:19:20;30.50;1.00
41469;DHT22;27206;47.032;15.484;2023-09-19T14:21:46;30.40;1.00
41469;DHT22;27206;47.032;15.484;2023-09-19T14:24:17;30.60;1.00
41469;DHT22;27206;47.032;15.484;2023-09-19T14:26:43;30.60;99.90
41469;DHT22;27206;47.032;15.484;2023-09-19T14:29:09;30.50;99.90
41469;DHT22;27206;47.032;15.484;2023-09-19T14:31:39;29.70;99.90
41469;DHT22;27206;47.032;15.484;2023-09-19T14:34:06;29.80;1.00
41469;DHT22;27206;47.032;15.484;2023-09-19T14:36:31;30.20;99.90
41469;DHT22;27206;47.032;15.484;2023-09-19T14:38:58;29.40;1.00
41469;DHT22;27206;47.032;15.484;2023-09-19T14:41:24;30.00;99.90
41469;DHT22;27206;47.032;15.484;2023-09-19T14:43:54;30.20;99.90
41469;DHT22;27206;47.032;15.484;2023-09-19T14:46:21;30.00;1.00
41469;DHT22;27206;47.032;15.484;2023-09-19T14:48:46;30.10;1.00
41469;DHT22;27206;47.032;15.484;2023-09-19T14:51:13;29.90;1.00
41469;DHT22;27206;47.032;15.484;2023-09-19T14:53:41;30.30;1.00
41469;DHT22;27206;47.032;15.484;2023-09-19T14:56:08;29.70;1.00
41469;DHT22;27206;47.032;15.484;2023-09-19T14:58:34;29.80;1.00
41469;DHT22;27206;47.032;15.484;2023-09-19T15:01:05;29.80;1.00
41469;DHT22;27206;47.032;15.484;2023-09-19T15:03:33;29.70;1.00
41469;DHT22;27206;47.032;15.484;2023-09-19T15:06:00;29.60;1.00
41469;DHT22;27206;47.032;15.484;2023-09-19T15:08:26;29.30;1.00
41469;DHT22;27206;47.032;15.484;2023-09-19T15:10:51;29.40;1.00
41469;DHT22;27206;47.032;15.484;2023-09-19T15:13:18;29.10;1.00
41469;DHT22;27206;47.032;15.484;2023-09-19T15:15:44;28.10;1.00
41469;DHT22;27206;47.032;15.484;2023-09-19T15:18:12;27.80;1.00
41469;DHT22;27206;47.032;15.484;2023-09-19T15:20:43;28.10;1.00
41469;DHT22;27206;47.032;15.484;2023-09-19T15:23:09;28.60;1.00
41469;DHT22;27206;47.032;15.484;2023-09-19T15:25:35;28.50;1.00
41469;DHT22;27206;47.032;15.484;2023-09-19T15:28:01;28.60;1.00
41469;DHT22;27206;47.032;15.484;2023-09-19T15:30:37;28.70;1.00
41469;DHT22;27206;47.032;15.484;2023-09-19T15:33:03;28.80;1.00
41469;DHT22;27206;47.032;15.484;2023-09-19T15:35:29;28.50;1.00
41469;DHT22;27206;47.032;15.484;2023-09-19T15:37:55;28.10;1.00
41469;DHT22;27206;47.032;15.484;2023-09-19T15:40:21;28.00;1.00
41469;DHT22;27206;47.032;15.484;2023-09-19T15:42:49;27.70;1.00
41469;DHT22;27206;47.032;15.484;2023-09-19T15:45:15;27.60;1.00
41469;DHT22;27206;47.032;15.484;2023-09-19T15:47:42;27.80;1.00
41469;DHT22;27206;47.032;15.484;2023-09-19T15:50:08;27.90;1.00
41469;DHT22;27206;47.032;15.484;2023-09-19T15:52:41;27.70;1.00
41469;DHT22;27206;47.032;15.484;2023-09-19T15:55:08;27.20;1.00
41469;DHT22;27206;47.032;15.484;2023-09-19T15:57:37;27.20;1.00
41469;DHT22;27206;47.032;15.484;2023-09-19T16:00:04;26.70;1.00
41469;DHT22;27206;47.032;15.484;2023-09-19T16:02:35;26.60;1.00
41469;DHT22;27206;47.032;15.484;2023-09-19T16:05:01;26.60;1.00
41469;DHT22;27206;47.032;15.484;2023-09-19T16:07:28;26.80;1.00
41469;DHT22;27206;47.032;15.484;2023-09-19T16:09:53;26.60;1.00
41469;DHT22;27206;47.032;15.484;2023-09-19T16:12:19;26.30;1.00
41469;DHT22;27206;47.032;15.484;2023-09-19T16:14:45;26.10;1.00
41469;DHT22;27206;47.032;15.484;2023-09-19T16:17:10;25.90;1.00
41469;DHT22;27206;47.032;15.484;2023-09-19T16:19:36;25.40;1.00
41469;DHT22;27206;47.032;15.484;2023-09-19T16:22:02;25.00;1.00